createdAt,value
2017-11-21T00:00:06.727Z,95.23
2017-11-21T00:01:11.801Z,94.78
2017-11-21T00:02:16.602Z,94.96
2017-11-21T00:03:21.501Z,95.17
2017-11-21T00:04:26.349Z,94.82
2017-11-21T00:05:31.186Z,94.67
2017-11-21T00:06:36.262Z,94.33
2017-11-21T00:07:41.332Z,94.53
2017-11-21T00:08:46.086Z,94.35
2017-11-21T00:09:50.758Z,94.33
2017-11-21T00:10:56.229Z,95.01
2017-11-21T00:12:01.703Z,95.10
2017-11-21T00:13:06.696Z,94.69
2017-11-21T00:14:11.606Z,94.80
2017-11-21T00:15:16.530Z,94.55
2017-11-21T00:16:21.441Z,94.85
2017-11-21T00:17:26.686Z,94.68
2017-11-21T00:18:31.924Z,94.52
2017-11-21T00:19:36.974Z,94.54
2017-11-21T00:20:41.880Z,94.76
2017-11-21T00:21:46.885Z,94.43
2017-11-21T00:22:51.884Z,94.73
2017-11-21T00:23:56.750Z,94.48
2017-11-21T00:25:02.137Z,94.84
2017-11-21T00:26:07.131Z,94.40
2017-11-21T00:27:12.052Z,94.75
2017-11-21T00:28:16.948Z,95.31
2017-11-21T00:29:21.965Z,95.61
2017-11-21T00:30:26.847Z,95.55
2017-11-21T00:31:32.104Z,95.72
2017-11-21T00:32:37.032Z,95.56
2017-11-21T00:33:41.927Z,94.44
2017-11-21T00:34:46.612Z,94.77
2017-11-21T00:35:51.159Z,94.96
2017-11-21T00:36:55.659Z,94.81
2017-11-21T00:38:01.047Z,94.83
2017-11-21T00:39:06.273Z,96.35
2017-11-21T00:40:11.871Z,96.91
2017-11-21T00:41:16.794Z,97.09
2017-11-21T00:42:21.701Z,97.07
2017-11-21T00:43:26.496Z,97.12
2017-11-21T00:44:31.819Z,97.14
2017-11-21T00:45:36.813Z,97.05
2017-11-21T00:46:41.349Z,97.22
2017-11-21T00:47:46.128Z,97.30
2017-11-21T00:48:50.762Z,97.60
2017-11-21T00:49:56.239Z,97.62
2017-11-21T00:51:01.167Z,97.67
2017-11-21T00:52:06.082Z,97.68
2017-11-21T00:53:11.129Z,97.67
2017-11-21T00:54:16.088Z,97.67
2017-11-21T00:55:20.979Z,97.28
2017-11-21T00:56:25.871Z,96.37
2017-11-21T00:57:31.284Z,95.32
2017-11-21T00:58:36.240Z,94.85
2017-11-21T00:59:41.135Z,95.59
2017-11-21T01:00:46.102Z,95.69
2017-11-21T01:01:51.077Z,94.99
2017-11-21T01:02:55.802Z,94.97
2017-11-21T01:04:00.993Z,95.43
2017-11-21T01:05:05.744Z,95.01
2017-11-21T01:06:10.625Z,94.78
2017-11-21T01:07:15.696Z,94.90
2017-11-21T01:08:20.648Z,95.06
2017-11-21T01:09:25.644Z,95.02
2017-11-21T01:10:31.008Z,94.47
2017-11-21T01:11:35.923Z,94.81
2017-11-21T01:12:40.864Z,94.78
2017-11-21T01:13:45.852Z,94.80
2017-11-21T01:14:50.741Z,95.07
2017-11-21T01:15:55.667Z,94.97
2017-11-21T01:17:01.108Z,94.74
2017-11-21T01:18:06.032Z,94.72
2017-11-21T01:19:10.912Z,94.78
2017-11-21T01:20:15.471Z,94.74
2017-11-21T01:21:20.423Z,94.97
2017-11-21T01:22:25.358Z,94.63
2017-11-21T01:23:30.705Z,94.86
2017-11-21T01:24:35.209Z,94.78
2017-11-21T01:25:39.763Z,95.00
2017-11-21T01:26:44.306Z,95.36
2017-11-21T01:27:48.808Z,95.21
2017-11-21T01:28:53.303Z,95.38
2017-11-21T01:29:58.307Z,94.72
2017-11-21T01:31:02.823Z,94.75
2017-11-21T01:32:07.332Z,94.95
2017-11-21T01:33:11.846Z,94.98
2017-11-21T01:34:16.372Z,94.92
2017-11-21T01:35:21.332Z,95.15
2017-11-21T01:36:26.607Z,95.27
2017-11-21T01:37:31.480Z,95.01
2017-11-21T01:38:36.075Z,95.11
2017-11-21T01:39:41.705Z,94.64
2017-11-21T01:40:46.643Z,94.87
2017-11-21T01:41:51.960Z,94.23
2017-11-21T01:42:56.887Z,94.03
2017-11-21T01:44:01.610Z,94.52
2017-11-21T01:45:06.434Z,94.86
2017-11-21T01:46:11.371Z,94.84
2017-11-21T01:47:16.310Z,94.76
2017-11-21T01:48:21.576Z,94.63
2017-11-21T01:49:26.515Z,94.33
2017-11-21T01:50:31.492Z,94.44
2017-11-21T01:51:36.385Z,94.81
2017-11-21T01:52:41.266Z,94.32
2017-11-21T01:53:46.205Z,94.35
2017-11-21T01:54:51.418Z,94.51
2017-11-21T01:55:56.355Z,94.67
2017-11-21T01:57:01.320Z,94.67
2017-11-21T01:58:06.231Z,94.40
2017-11-21T01:59:11.091Z,94.24
2017-11-21T02:00:15.758Z,94.78
2017-11-21T02:01:20.962Z,94.63
2017-11-21T02:02:25.907Z,94.52
2017-11-21T02:03:30.831Z,94.54
2017-11-21T02:04:35.684Z,94.64
2017-11-21T02:05:40.610Z,93.80
2017-11-21T02:06:45.632Z,95.95
2017-11-21T02:07:50.963Z,96.30
2017-11-21T02:08:56.110Z,96.42
2017-11-21T02:10:01.122Z,96.58
2017-11-21T02:11:06.042Z,96.20
2017-11-21T02:12:10.979Z,96.16
2017-11-21T02:13:15.915Z,96.27
2017-11-21T02:14:21.425Z,95.96
2017-11-21T02:15:26.294Z,95.61
2017-11-21T02:16:31.236Z,94.71
2017-11-21T02:17:36.147Z,94.17
2017-11-21T02:18:41.079Z,94.54
2017-11-21T02:19:46.017Z,94.23
2017-11-21T02:20:51.442Z,93.98
2017-11-21T02:21:56.340Z,93.87
2017-11-21T02:23:01.232Z,94.63
2017-11-21T02:24:06.149Z,94.97
2017-11-21T02:25:11.061Z,94.75
2017-11-21T02:26:15.961Z,94.92
2017-11-21T02:27:21.346Z,95.14
2017-11-21T02:28:26.255Z,95.23
2017-11-21T02:29:31.829Z,94.63
2017-11-21T02:30:36.497Z,94.13
2017-11-21T02:31:41.192Z,94.57
2017-11-21T02:32:45.862Z,94.52
2017-11-21T02:33:50.838Z,94.65
2017-11-21T02:34:55.553Z,94.73
2017-11-21T02:36:00.302Z,95.04
2017-11-21T02:37:04.997Z,95.00
2017-11-21T02:38:09.682Z,94.26
2017-11-21T02:39:14.891Z,94.54
2017-11-21T02:40:19.960Z,94.50
2017-11-21T02:41:24.590Z,94.43
2017-11-21T02:42:29.234Z,94.07
2017-11-21T02:43:33.871Z,94.28
2017-11-21T02:44:38.529Z,94.27
2017-11-21T02:45:43.241Z,94.34
2017-11-21T02:46:48.242Z,94.07
2017-11-21T02:47:52.953Z,94.20
2017-11-21T02:48:57.606Z,94.28
2017-11-21T02:50:02.296Z,94.23
2017-11-21T02:51:07.040Z,94.66
2017-11-21T02:52:11.811Z,94.55
2017-11-21T02:53:16.894Z,94.62
2017-11-21T02:54:21.526Z,94.25
2017-11-21T02:55:26.165Z,93.82
2017-11-21T02:56:30.893Z,94.08
2017-11-21T02:57:35.623Z,94.38
2017-11-21T02:58:40.267Z,94.27
2017-11-21T02:59:45.385Z,93.80
2017-11-21T03:00:50.185Z,94.22
2017-11-21T03:01:54.834Z,94.34
2017-11-21T03:02:59.492Z,93.92
2017-11-21T03:04:04.126Z,94.32
2017-11-21T03:05:08.785Z,94.59
2017-11-21T03:06:13.796Z,94.26
2017-11-21T03:07:18.470Z,94.60
2017-11-21T03:08:23.114Z,94.60
2017-11-21T03:09:27.786Z,94.13
2017-11-21T03:10:32.464Z,94.78
2017-11-21T03:11:37.141Z,94.89
2017-11-21T03:12:43.417Z,94.59
2017-11-21T03:13:48.033Z,94.47
2017-11-21T03:14:52.783Z,94.42
2017-11-21T03:15:57.499Z,95.06
2017-11-21T03:17:02.333Z,94.99
2017-11-21T03:18:06.992Z,94.74
2017-11-21T03:19:12.723Z,94.58
2017-11-21T03:20:21.634Z,94.40
2017-11-21T03:23:33.559Z,94.31
2017-11-21T03:24:43.709Z,94.48
2017-11-21T03:26:19.822Z,93.97
2017-11-21T03:27:28.784Z,93.82
2017-11-21T03:28:37.709Z,94.13
2017-11-21T03:29:42.429Z,93.88
2017-11-21T03:30:47.334Z,94.23
2017-11-21T03:31:52.499Z,94.56
2017-11-21T03:32:57.203Z,94.87
2017-11-21T03:34:01.794Z,94.93
2017-11-21T03:35:06.430Z,94.67
2017-11-21T03:36:10.991Z,94.55
2017-11-21T03:37:15.570Z,94.99
2017-11-21T03:38:20.898Z,95.06
2017-11-21T03:39:25.659Z,95.38
2017-11-21T03:40:30.333Z,95.18
2017-11-21T03:41:35.045Z,95.38
2017-11-21T03:42:39.726Z,96.32
2017-11-21T03:43:44.435Z,95.45
2017-11-21T03:44:49.390Z,94.81
2017-11-21T03:45:54.837Z,94.81
2017-11-21T03:46:59.537Z,94.98
2017-11-21T03:48:04.245Z,94.87
2017-11-21T03:49:08.944Z,94.72
2017-11-21T03:50:13.754Z,94.74
2017-11-21T03:51:18.736Z,94.79
2017-11-21T03:52:23.426Z,94.48
2017-11-21T03:53:28.115Z,94.16
2017-11-21T03:54:32.824Z,94.29
2017-11-21T03:55:37.609Z,94.68
2017-11-21T03:56:42.302Z,94.51
2017-11-21T03:57:47.475Z,94.66
2017-11-21T03:58:52.165Z,94.75
2017-11-21T03:59:56.817Z,94.94
2017-11-21T04:01:01.490Z,94.69
2017-11-21T04:02:06.194Z,94.67
2017-11-21T04:03:10.917Z,94.62
2017-11-21T04:04:16.058Z,94.65
2017-11-21T04:05:20.851Z,95.12
2017-11-21T04:06:25.625Z,95.02
2017-11-21T04:07:30.376Z,94.58
2017-11-21T04:08:35.063Z,94.31
2017-11-21T04:09:39.753Z,94.69
2017-11-21T04:10:45.003Z,94.74
2017-11-21T04:11:49.638Z,94.35
2017-11-21T04:12:54.335Z,94.51
2017-11-21T04:13:59.039Z,94.40
2017-11-21T04:15:03.666Z,94.71
2017-11-21T04:16:08.263Z,94.73
2017-11-21T04:17:13.393Z,94.66
2017-11-21T04:18:18.096Z,94.89
2017-11-21T04:19:22.799Z,94.70
2017-11-21T04:20:27.446Z,94.90
2017-11-21T04:21:32.107Z,94.15
2017-11-21T04:22:36.822Z,94.70
2017-11-21T04:23:41.902Z,94.63
2017-11-21T04:24:46.607Z,94.88
2017-11-21T04:25:51.242Z,95.24
2017-11-21T04:26:55.872Z,95.59
2017-11-21T04:28:00.514Z,95.15
2017-11-21T04:29:05.215Z,95.39
2017-11-21T04:30:10.199Z,95.16
2017-11-21T04:31:14.916Z,95.36
2017-11-21T04:32:19.642Z,95.34
2017-11-21T04:33:24.397Z,95.48
2017-11-21T04:34:29.129Z,95.70
2017-11-21T04:35:33.854Z,95.80
2017-11-21T04:36:38.971Z,95.75
2017-11-21T04:37:43.665Z,95.64
2017-11-21T04:38:48.356Z,95.60
2017-11-21T04:39:53.046Z,95.53
2017-11-21T04:40:57.719Z,95.40
2017-11-21T04:42:02.389Z,95.70
2017-11-21T04:43:07.451Z,95.92
2017-11-21T04:44:12.155Z,96.05
2017-11-21T04:45:16.826Z,95.88
2017-11-21T04:46:21.487Z,96.05
2017-11-21T04:47:26.017Z,95.83
2017-11-21T04:48:30.569Z,96.29
2017-11-21T04:49:35.747Z,98.00
2017-11-21T04:50:40.412Z,97.93
2017-11-21T04:51:45.094Z,97.96
2017-11-21T04:52:49.610Z,98.07
2017-11-21T04:53:54.321Z,98.09
2017-11-21T04:54:59.149Z,98.03
2017-11-21T04:56:04.652Z,97.94
2017-11-21T04:57:09.371Z,97.99
2017-11-21T04:58:14.154Z,98.03
2017-11-21T04:59:18.924Z,97.98
2017-11-21T05:15:14.265Z,98.07
2017-11-21T05:16:19.135Z,97.69
2017-11-21T05:17:23.920Z,97.51
2017-11-21T05:18:28.638Z,97.65
2017-11-21T05:19:33.377Z,97.70
2017-11-21T05:20:38.716Z,97.52
2017-11-21T05:21:43.478Z,97.42
2017-11-21T05:22:48.195Z,97.41
2017-11-21T05:23:52.949Z,97.23
2017-11-21T05:24:58.182Z,97.06
2017-11-21T05:26:02.984Z,96.53
2017-11-21T05:27:08.214Z,95.76
2017-11-21T05:28:12.982Z,95.64
2017-11-21T05:29:17.748Z,96.18
2017-11-21T05:30:22.509Z,95.58
2017-11-21T05:31:27.275Z,95.97
2017-11-21T05:32:36.251Z,95.00
2017-11-21T05:33:42.496Z,94.84
2017-11-21T05:34:47.235Z,95.70
2017-11-21T05:35:52.002Z,95.50
2017-11-21T05:36:56.774Z,95.37
2017-11-21T05:38:01.658Z,95.31
2017-11-21T05:39:06.380Z,95.75
2017-11-21T05:40:11.544Z,95.69
2017-11-21T05:41:16.359Z,95.92
2017-11-21T05:42:21.161Z,95.60
2017-11-21T05:43:27.125Z,96.08
2017-11-21T05:44:31.888Z,96.12
2017-11-21T05:45:36.728Z,96.48
2017-11-21T05:46:41.949Z,96.49
2017-11-21T05:47:46.817Z,96.28
2017-11-21T05:48:51.583Z,96.27
2017-11-21T05:49:56.728Z,96.24
2017-11-21T05:51:01.530Z,96.08
2017-11-21T05:52:06.204Z,96.06
2017-11-21T05:53:11.417Z,95.94
2017-11-21T05:54:16.148Z,95.60
2017-11-21T05:55:20.916Z,95.92
2017-11-21T05:56:25.730Z,95.85
2017-11-21T05:57:30.572Z,95.89
2017-11-21T05:58:35.377Z,96.16
2017-11-21T05:59:40.540Z,95.91
2017-11-21T06:00:45.377Z,96.04
2017-11-21T06:01:50.145Z,95.89
2017-11-21T06:02:54.955Z,95.95
2017-11-21T06:03:59.729Z,96.00
2017-11-21T06:05:04.446Z,95.98
2017-11-21T06:06:09.599Z,95.70
2017-11-21T06:07:14.315Z,95.70
2017-11-21T06:08:19.565Z,95.29
2017-11-21T06:09:24.284Z,95.41
2017-11-21T06:10:29.024Z,95.21
2017-11-21T06:11:33.695Z,95.52
2017-11-21T06:12:38.691Z,95.30
2017-11-21T06:13:43.504Z,94.95
2017-11-21T06:14:48.263Z,95.25
2017-11-21T06:15:53.083Z,95.01
2017-11-21T06:16:57.735Z,95.47
2017-11-21T06:18:02.608Z,95.48
2017-11-21T06:19:07.973Z,95.28
2017-11-21T06:20:12.724Z,95.28
2017-11-21T06:21:17.730Z,94.68
2017-11-21T06:22:22.523Z,95.30
2017-11-21T06:23:27.347Z,95.23
2017-11-21T06:25:54.422Z,95.32
2017-11-21T06:26:59.189Z,95.16
2017-11-21T06:28:04.111Z,95.17
2017-11-21T06:29:09.748Z,95.16
2017-11-21T06:30:14.537Z,94.87
2017-11-21T06:31:19.480Z,94.84
2017-11-21T06:32:24.598Z,95.17
2017-11-21T06:33:29.428Z,94.97
2017-11-21T06:34:34.300Z,95.04
2017-11-21T06:35:39.124Z,94.77
2017-11-21T06:36:43.957Z,94.74
2017-11-21T06:37:48.733Z,94.96
2017-11-21T06:38:53.915Z,95.01
2017-11-21T06:39:58.850Z,95.11
2017-11-21T06:41:03.626Z,94.88
2017-11-21T06:42:08.461Z,95.22
2017-11-21T06:43:13.235Z,95.44
2017-11-21T06:44:18.082Z,95.37
2017-11-21T06:45:24.455Z,94.68
2017-11-21T06:46:29.268Z,94.74
2017-11-21T06:47:34.141Z,94.30
2017-11-21T06:48:38.950Z,94.07
2017-11-21T06:49:43.795Z,94.89
2017-11-21T06:50:48.555Z,95.01
2017-11-21T06:51:53.832Z,95.05
2017-11-21T06:52:58.756Z,94.52
2017-11-21T06:54:03.630Z,94.26
2017-11-21T06:55:08.939Z,94.36
2017-11-21T06:56:13.768Z,94.41
2017-11-21T06:57:18.567Z,94.46
2017-11-21T06:58:23.714Z,94.55
2017-11-21T06:59:28.569Z,94.37
2017-11-21T07:00:33.401Z,94.59
2017-11-21T07:01:38.411Z,94.85
2017-11-21T07:02:43.178Z,94.83
2017-11-21T07:03:48.840Z,94.39
2017-11-21T07:04:53.970Z,94.21
2017-11-21T07:05:58.855Z,94.25
2017-11-21T07:07:03.817Z,94.02
2017-11-21T07:08:08.710Z,93.82
2017-11-21T07:09:13.571Z,94.19
2017-11-21T07:10:18.338Z,94.16
2017-11-21T07:11:23.718Z,93.79
2017-11-21T07:12:28.493Z,93.55
2017-11-21T07:13:33.309Z,94.04
2017-11-21T07:14:38.093Z,94.05
2017-11-21T07:15:42.909Z,94.59
2017-11-21T07:16:47.726Z,94.38
2017-11-21T07:17:52.898Z,94.10
2017-11-21T07:18:58.092Z,94.44
2017-11-21T07:20:02.945Z,94.20
2017-11-21T07:21:07.727Z,94.26
2017-11-21T07:22:12.618Z,94.24
2017-11-21T07:23:17.470Z,94.53
2017-11-21T07:24:22.643Z,93.84
2017-11-21T07:25:27.565Z,94.10
2017-11-21T07:26:32.423Z,94.11
2017-11-21T07:27:37.240Z,94.09
2017-11-21T07:28:42.085Z,93.95
2017-11-21T07:29:46.889Z,94.16
2017-11-21T07:30:52.569Z,94.45
2017-11-21T07:31:57.340Z,95.00
2017-11-21T07:33:02.249Z,94.39
2017-11-21T07:34:07.014Z,94.54
2017-11-21T07:35:11.891Z,94.07
2017-11-21T07:36:17.566Z,95.33
2017-11-21T07:37:22.390Z,95.49
2017-11-21T07:38:27.164Z,95.21
2017-11-21T07:39:31.840Z,94.20
2017-11-21T07:40:36.502Z,93.93
2017-11-21T07:41:41.159Z,94.58
2017-11-21T07:42:46.404Z,93.62
2017-11-21T07:43:51.220Z,93.74
2017-11-21T07:44:56.129Z,94.26
2017-11-21T07:46:00.900Z,94.14
2017-11-21T07:47:05.769Z,94.17
2017-11-21T07:48:10.790Z,94.33
2017-11-21T07:49:16.078Z,94.64
2017-11-21T07:50:20.919Z,94.70
2017-11-21T07:51:25.658Z,94.24
2017-11-21T07:52:30.476Z,93.48
2017-11-21T07:53:36.184Z,94.08
2017-11-21T07:54:41.040Z,94.04
2017-11-21T07:55:46.211Z,94.25
2017-11-21T07:56:50.856Z,93.88
2017-11-21T07:57:55.547Z,94.10
2017-11-21T07:59:00.192Z,94.34
2017-11-21T08:00:05.367Z,94.62
2017-11-21T08:01:10.200Z,94.63
2017-11-21T08:02:15.336Z,94.23
2017-11-21T08:03:20.042Z,94.31
2017-11-21T08:04:24.751Z,94.20
2017-11-21T08:05:29.788Z,94.06
2017-11-21T08:06:35.032Z,93.53
2017-11-21T08:07:40.221Z,93.51
2017-11-21T08:08:45.877Z,93.56
2017-11-21T08:09:52.025Z,93.57
2017-11-21T08:10:57.189Z,93.96
2017-11-21T08:12:02.279Z,93.48
2017-11-21T08:13:08.000Z,93.63
2017-11-21T08:14:13.176Z,93.53
2017-11-21T08:15:18.516Z,93.99
2017-11-21T08:16:23.527Z,93.66
2017-11-21T08:17:28.885Z,94.29
2017-11-21T08:18:33.936Z,94.12
2017-11-21T08:19:38.873Z,93.77
2017-11-21T08:20:43.737Z,93.77
2017-11-21T08:21:48.724Z,94.08
2017-11-21T08:22:53.731Z,94.06
2017-11-21T08:23:58.812Z,94.41
2017-11-21T08:25:05.390Z,94.21
2017-11-21T08:26:10.311Z,94.53
2017-11-21T08:27:15.314Z,94.33
2017-11-21T08:28:20.644Z,94.66
2017-11-21T08:29:25.717Z,94.31
2017-11-21T08:30:30.726Z,94.28
2017-11-21T08:31:35.655Z,94.29
2017-11-21T08:32:40.720Z,94.41
2017-11-21T08:33:45.730Z,94.87
2017-11-21T08:34:51.026Z,94.07
2017-11-21T08:35:56.109Z,93.89
2017-11-21T08:37:02.195Z,93.29
2017-11-21T08:38:07.169Z,93.10
2017-11-21T08:39:12.276Z,93.63
2017-11-21T08:40:17.546Z,93.64
2017-11-21T08:41:22.682Z,93.92
2017-11-21T08:42:27.853Z,93.74
2017-11-21T08:43:32.982Z,93.86
2017-11-21T08:44:38.039Z,93.74
2017-11-21T08:45:43.002Z,93.63
2017-11-21T08:46:48.122Z,93.35
2017-11-21T08:47:53.200Z,93.73
2017-11-21T08:48:58.469Z,92.75
2017-11-21T08:50:03.736Z,93.03
2017-11-21T08:51:09.023Z,93.73
2017-11-21T08:52:14.873Z,93.99
2017-11-21T08:53:20.149Z,94.32
2017-11-21T08:54:25.181Z,93.87
2017-11-21T08:55:30.350Z,94.23
2017-11-21T08:56:35.872Z,93.73
2017-11-21T08:57:40.948Z,94.09
2017-11-21T08:58:45.788Z,93.95
2017-11-21T08:59:50.654Z,93.80
2017-11-21T09:00:55.558Z,93.52
2017-11-21T09:02:00.421Z,94.29
2017-11-21T09:03:05.235Z,94.63
2017-11-21T09:04:10.751Z,94.69
2017-11-21T09:05:15.632Z,93.97
2017-11-21T09:06:21.086Z,93.86
2017-11-21T09:07:25.979Z,94.05
2017-11-21T09:08:30.790Z,94.17
2017-11-21T09:09:35.801Z,94.36
2017-11-21T09:10:40.554Z,94.39
2017-11-21T09:11:45.265Z,95.10
2017-11-21T09:12:49.871Z,94.63
2017-11-21T09:13:54.483Z,95.36
2017-11-21T09:14:59.127Z,95.04
2017-11-21T09:16:04.049Z,94.71
2017-11-21T09:17:08.605Z,95.68
2017-11-21T09:18:13.926Z,96.15
2017-11-21T09:19:18.579Z,95.91
2017-11-21T09:20:23.372Z,93.99
2017-11-21T09:21:28.024Z,94.68
2017-11-21T09:22:33.040Z,94.27
2017-11-21T09:23:37.681Z,94.77
2017-11-21T09:24:42.346Z,94.85
2017-11-21T09:25:47.038Z,93.58
2017-11-21T09:26:51.632Z,94.00
2017-11-21T09:27:56.272Z,96.61
2017-11-21T09:29:01.070Z,96.61
2017-11-21T09:30:05.585Z,95.17
2017-11-21T09:31:10.234Z,94.73
2017-11-21T09:32:14.961Z,94.67
2017-11-21T09:33:19.482Z,94.28
2017-11-21T09:34:24.072Z,94.36
2017-11-21T09:35:29.172Z,93.87
2017-11-21T09:36:33.731Z,93.63
2017-11-21T09:37:38.646Z,94.45
2017-11-21T09:38:43.299Z,94.84
2017-11-21T09:39:47.933Z,95.19
2017-11-21T09:40:52.568Z,95.09
2017-11-21T09:41:57.193Z,94.30
2017-11-21T09:43:02.053Z,94.54
2017-11-21T09:44:06.699Z,94.46
2017-11-21T09:45:11.408Z,95.23
2017-11-21T09:46:16.169Z,95.11
2017-11-21T09:47:21.374Z,94.91
2017-11-21T09:48:26.067Z,95.03
2017-11-21T09:49:30.774Z,95.32
2017-11-21T09:50:35.458Z,95.24
2017-11-21T09:51:40.182Z,95.53
2017-11-21T09:52:44.999Z,95.45
2017-11-21T09:53:49.679Z,94.61
2017-11-21T09:54:54.349Z,94.93
2017-11-21T09:55:58.974Z,95.08
2017-11-21T09:57:03.637Z,95.20
2017-11-21T09:58:08.445Z,95.15
2017-11-21T09:59:14.032Z,95.41
2017-11-21T10:00:18.809Z,96.52
2017-11-21T10:01:23.481Z,96.92
2017-11-21T10:02:28.330Z,97.01
2017-11-21T10:03:32.982Z,96.58
2017-11-21T10:04:37.808Z,95.35
2017-11-21T10:05:43.052Z,95.23
2017-11-21T10:06:47.929Z,95.34
2017-11-21T10:07:52.688Z,95.48
2017-11-21T10:08:57.526Z,94.00
2017-11-21T10:10:02.450Z,93.76
2017-11-21T10:11:07.374Z,94.21
2017-11-21T10:12:12.643Z,93.68
2017-11-21T10:13:17.402Z,94.00
2017-11-21T10:14:22.157Z,94.61
2017-11-21T10:15:27.789Z,95.58
2017-11-21T10:16:32.701Z,95.76
2017-11-21T10:17:37.354Z,95.75
2017-11-21T10:18:42.502Z,95.87
2017-11-21T10:19:47.208Z,95.54
2017-11-21T10:20:51.954Z,94.00
2017-11-21T10:21:56.694Z,94.06
2017-11-21T10:23:01.705Z,94.17
2017-11-21T10:24:06.550Z,93.74
2017-11-21T10:25:11.838Z,93.71
2017-11-21T10:26:16.528Z,94.59
2017-11-21T10:27:21.276Z,94.86
2017-11-21T10:28:25.918Z,94.88
2017-11-21T10:29:30.601Z,95.19
2017-11-21T10:30:35.440Z,94.66
2017-11-21T10:33:02.594Z,93.67
2017-11-21T10:34:07.341Z,93.16
2017-11-21T10:35:12.129Z,93.50
2017-11-21T10:36:16.690Z,93.82
2017-11-21T10:37:21.372Z,94.20
2017-11-21T10:38:26.071Z,94.51
2017-11-21T10:39:31.315Z,94.17
2017-11-21T10:40:36.118Z,94.00
2017-11-21T10:41:40.924Z,94.51
2017-11-21T10:42:45.763Z,94.01
2017-11-21T10:43:50.538Z,96.81
2017-11-21T10:44:55.538Z,97.27
2017-11-21T10:46:00.426Z,97.26
2017-11-21T10:47:05.348Z,97.28
2017-11-21T10:48:10.158Z,97.06
2017-11-21T10:49:15.002Z,97.09
2017-11-21T10:50:19.896Z,97.11
2017-11-21T10:51:24.961Z,95.94
2017-11-21T10:52:30.454Z,94.44
2017-11-21T10:53:35.366Z,94.82
2017-11-21T10:54:40.314Z,94.44
2017-11-21T10:55:45.200Z,94.52
2017-11-21T10:56:50.131Z,94.59
2017-11-21T10:57:54.942Z,94.41
2017-11-21T10:59:00.638Z,94.85
2017-11-21T11:15:26.162Z,94.81
2017-11-21T11:16:31.099Z,94.27
2017-11-21T11:17:35.916Z,94.51
2017-11-21T11:18:41.470Z,94.34
2017-11-21T11:19:46.546Z,94.30
2017-11-21T11:20:51.664Z,94.48
2017-11-21T11:21:56.457Z,94.41
2017-11-21T11:23:01.402Z,94.75
2017-11-21T11:24:06.281Z,94.80
2017-11-21T11:25:11.037Z,94.86
2017-11-21T11:26:15.952Z,94.40
2017-11-21T11:27:21.116Z,94.62
2017-11-21T11:28:25.901Z,94.91
2017-11-21T11:29:30.667Z,94.74
2017-11-21T11:30:35.401Z,95.47
2017-11-21T11:31:40.227Z,96.04
2017-11-21T11:32:44.981Z,94.68
2017-11-21T11:33:50.191Z,94.50
2017-11-21T11:34:55.063Z,93.68
2017-11-21T11:35:59.892Z,94.67
2017-11-21T11:37:04.770Z,94.15
2017-11-21T11:38:09.590Z,96.08
2017-11-21T11:39:14.367Z,96.73
2017-11-21T11:40:19.559Z,96.38
2017-11-21T11:41:24.284Z,96.49
2017-11-21T11:42:29.035Z,96.42
2017-11-21T11:43:33.825Z,95.29
2017-11-21T11:44:38.813Z,94.43
2017-11-21T11:45:43.676Z,94.55
2017-11-21T11:46:49.056Z,94.54
2017-11-21T11:47:53.886Z,94.31
2017-11-21T11:48:58.756Z,94.27
2017-11-21T11:50:03.669Z,94.98
2017-11-21T11:51:08.503Z,92.56
2017-11-21T11:52:13.313Z,92.15
2017-11-21T11:53:18.441Z,93.17
2017-11-21T11:54:23.272Z,93.53
2017-11-21T11:55:28.048Z,94.19
2017-11-21T11:56:32.890Z,94.92
2017-11-21T11:57:37.829Z,95.48
2017-11-21T11:58:42.555Z,94.71
2017-11-21T11:59:47.743Z,94.86
2017-11-21T12:00:52.533Z,94.71
2017-11-21T12:01:57.386Z,94.87
2017-11-21T12:03:02.194Z,94.82
2017-11-21T12:04:07.023Z,95.22
2017-11-21T12:05:12.290Z,95.36
2017-11-21T12:06:17.605Z,95.14
2017-11-21T12:07:22.405Z,95.02
2017-11-21T12:08:27.251Z,95.55
2017-11-21T12:09:32.619Z,95.21
2017-11-21T12:10:37.386Z,95.10
2017-11-21T12:11:42.336Z,95.10
2017-11-21T12:12:47.469Z,95.38
2017-11-21T12:13:52.345Z,95.30
2017-11-21T12:14:57.985Z,95.39
2017-11-21T12:16:03.868Z,95.50
2017-11-21T12:17:08.899Z,96.22
2017-11-21T12:18:13.861Z,96.59
2017-11-21T12:19:19.014Z,96.47
2017-11-21T12:20:23.933Z,96.40
2017-11-21T12:21:28.804Z,95.59
2017-11-21T12:22:33.581Z,95.26
2017-11-21T12:23:38.400Z,94.91
2017-11-21T12:24:43.169Z,95.13
2017-11-21T12:25:48.273Z,94.70
2017-11-21T12:26:53.024Z,95.00
2017-11-21T12:27:57.748Z,95.02
2017-11-21T12:29:02.499Z,94.51
2017-11-21T12:30:07.196Z,94.33
2017-11-21T12:31:11.905Z,94.84
2017-11-21T12:32:17.328Z,95.02
2017-11-21T12:33:22.142Z,94.34
2017-11-21T12:34:26.948Z,94.80
2017-11-21T12:35:32.608Z,95.26
2017-11-21T12:36:37.323Z,95.22
2017-11-21T12:37:42.256Z,95.35
2017-11-21T12:38:47.434Z,95.33
2017-11-21T12:39:52.157Z,95.31
2017-11-21T12:40:57.122Z,95.75
2017-11-21T12:42:02.121Z,95.35
2017-11-21T12:43:06.820Z,95.44
2017-11-21T12:44:11.564Z,95.06
2017-11-21T12:45:16.726Z,94.95
2017-11-21T12:46:21.469Z,94.87
2017-11-21T12:47:26.334Z,94.77
2017-11-21T12:48:31.147Z,95.21
2017-11-21T12:49:35.982Z,94.92
2017-11-21T12:50:40.776Z,95.42
2017-11-21T12:51:46.107Z,96.20
2017-11-21T12:52:51.159Z,96.33
2017-11-21T12:53:56.003Z,96.14
2017-11-21T12:55:01.008Z,95.85
2017-11-21T12:56:05.978Z,95.51
2017-11-21T12:57:14.604Z,96.98
2017-11-21T12:58:20.019Z,97.08
2017-11-21T12:59:24.917Z,96.80
2017-11-21T13:00:29.610Z,94.41
2017-11-21T13:01:34.441Z,95.14
2017-11-21T13:02:39.250Z,94.91
2017-11-21T13:03:43.951Z,95.25
2017-11-21T13:04:48.747Z,95.64
2017-11-21T13:05:53.485Z,95.96
2017-11-21T13:06:58.250Z,96.77
2017-11-21T13:08:02.997Z,96.87
2017-11-21T13:09:07.730Z,96.89
2017-11-21T13:10:12.820Z,96.81
2017-11-21T13:11:17.602Z,96.46
2017-11-21T13:12:22.366Z,95.92
2017-11-21T13:13:27.218Z,95.36
2017-11-21T13:14:31.976Z,94.92
2017-11-21T13:15:36.776Z,95.96
2017-11-21T13:16:41.988Z,95.62
2017-11-21T13:17:46.780Z,96.05
2017-11-21T13:18:51.541Z,95.58
2017-11-21T13:19:56.349Z,95.76
2017-11-21T13:21:01.063Z,95.75
2017-11-21T13:22:06.982Z,95.22
2017-11-21T13:23:12.258Z,95.26
2017-11-21T13:24:17.006Z,95.14
2017-11-21T13:25:21.753Z,95.43
2017-11-21T13:26:26.619Z,95.27
2017-11-21T13:27:31.444Z,95.32
2017-11-21T13:28:36.232Z,95.62
2017-11-21T13:29:41.284Z,95.12
2017-11-21T13:30:46.060Z,95.17
2017-11-21T13:31:50.872Z,95.43
2017-11-21T13:32:55.851Z,95.35
2017-11-21T13:34:00.763Z,95.03
2017-11-21T13:35:05.698Z,94.78
2017-11-21T13:36:10.836Z,94.92
2017-11-21T13:37:15.644Z,94.80
2017-11-21T13:38:20.486Z,94.63
2017-11-21T13:39:26.390Z,95.28
2017-11-21T13:40:31.169Z,95.33
2017-11-21T13:41:35.946Z,95.09
2017-11-21T13:42:41.058Z,94.84
2017-11-21T13:43:45.822Z,95.08
2017-11-21T13:44:51.057Z,95.67
2017-11-21T13:45:56.183Z,95.69
2017-11-21T13:47:00.971Z,95.10
2017-11-21T13:48:05.786Z,94.94
2017-11-21T13:49:11.068Z,95.86
2017-11-21T13:50:15.778Z,96.03
2017-11-21T13:51:20.496Z,96.29
2017-11-21T13:52:25.254Z,95.75
2017-11-21T13:53:30.129Z,95.74
2017-11-21T13:54:35.157Z,96.37
2017-11-21T13:55:39.837Z,96.31
2017-11-21T13:56:44.631Z,96.06
2017-11-21T13:57:49.496Z,96.66
2017-11-21T13:58:54.430Z,97.66
2017-11-21T13:59:59.787Z,97.81
2017-11-21T14:01:05.075Z,97.79
2017-11-21T14:02:10.174Z,96.99
2017-11-21T14:03:14.929Z,96.11
2017-11-21T14:04:19.638Z,95.94
2017-11-21T14:05:24.489Z,96.02
2017-11-21T14:06:29.395Z,96.09
2017-11-21T14:07:37.471Z,95.63
2017-11-21T14:08:42.156Z,95.89
2017-11-21T14:09:46.881Z,95.70
2017-11-21T14:10:51.687Z,95.72
2017-11-21T14:11:56.510Z,96.05
2017-11-21T14:13:01.312Z,95.58
2017-11-21T14:14:06.434Z,95.49
2017-11-21T14:15:12.204Z,95.80
2017-11-21T14:16:17.006Z,95.36
2017-11-21T14:17:21.833Z,95.80
2017-11-21T14:18:26.615Z,95.92
2017-11-21T14:19:31.458Z,96.02
2017-11-21T14:20:36.706Z,95.80
2017-11-21T14:21:41.551Z,96.44
2017-11-21T14:22:46.385Z,96.09
2017-11-21T14:23:51.172Z,96.05
2017-11-21T14:24:55.969Z,95.78
2017-11-21T14:26:00.783Z,95.99
2017-11-21T14:27:06.055Z,95.87
2017-11-21T14:28:10.945Z,96.09
2017-11-21T14:29:15.643Z,95.95
2017-11-21T14:30:20.679Z,95.92
2017-11-21T14:31:25.566Z,95.38